Aviation Digital Data Service (ADDS)

Output produced by METARs form (2308 UTC 23 July 2016)
found at http://aviationweather.gov/adds/metars/
 
KBDR 231933Z 2320/2418 29014G22KT P6SM FEW060 
     FM232200 32007KT P6SM SKC 
     FM240200 VRB05KT P6SM SKC 
     FM241500 30007KT P6SM SKC 
     FM241700 24010KT P6SM SKC